createdAt,value
2023-04-19T00:02:22.989Z,5.40
2023-04-19T00:04:53.276Z,5.44
2023-04-19T00:07:24.090Z,5.50
2023-04-19T00:09:53.462Z,5.49
2023-04-19T00:12:24.516Z,5.54
2023-04-19T00:14:53.832Z,5.53
2023-04-19T00:17:25.853Z,5.52
2023-04-19T00:19:55.135Z,5.54
2023-04-19T00:22:24.630Z,5.50
2023-04-19T00:24:54.002Z,5.53
2023-04-19T00:27:24.655Z,5.46
2023-04-19T00:29:54.145Z,5.57
2023-04-19T00:32:23.519Z,5.57
2023-04-19T00:34:53.117Z,5.44
2023-04-19T00:37:24.352Z,5.51
2023-04-19T00:39:53.669Z,5.47
2023-04-19T00:42:25.086Z,5.45
2023-04-19T00:44:55.794Z,5.49
2023-04-19T00:47:25.215Z,5.55
2023-04-19T00:49:54.832Z,5.64
2023-04-19T00:52:24.314Z,5.60
2023-04-19T00:54:55.530Z,5.52
2023-04-19T00:57:27.363Z,5.61
2023-04-19T00:59:58.518Z,5.51
2023-04-19T01:02:28.396Z,5.52
2023-04-19T01:04:57.861Z,5.43
2023-04-19T01:07:28.785Z,5.52
2023-04-19T01:09:57.993Z,5.48
2023-04-19T01:12:29.949Z,5.45
2023-04-19T01:15:00.209Z,5.51
2023-04-19T01:17:32.817Z,5.53
2023-04-19T01:20:03.767Z,5.54
2023-04-19T01:22:37.801Z,5.62
2023-04-19T01:25:08.785Z,5.64
2023-04-19T01:27:38.256Z,5.62
2023-04-19T01:30:09.050Z,5.49
2023-04-19T01:32:38.545Z,5.50
2023-04-19T01:35:11.092Z,5.39
2023-04-19T01:37:44.415Z,5.39
2023-04-19T01:40:14.670Z,5.37
2023-04-19T01:42:46.143Z,5.33
2023-04-19T01:45:15.618Z,5.30
2023-04-19T01:47:44.910Z,5.25
2023-04-19T01:50:14.800Z,5.19
2023-04-19T01:52:46.202Z,5.14
2023-04-19T01:55:16.515Z,5.09
2023-04-19T01:57:46.115Z,5.07
2023-04-19T02:00:18.032Z,5.04
2023-04-19T02:02:50.321Z,4.95
2023-04-19T02:05:19.845Z,4.85
2023-04-19T02:07:51.332Z,4.85
2023-04-19T02:10:21.029Z,4.79
2023-04-19T02:12:50.578Z,4.68
2023-04-19T02:15:19.851Z,4.62
2023-04-19T02:17:50.631Z,4.61
2023-04-19T02:20:21.734Z,4.55
2023-04-19T02:22:52.974Z,4.54
2023-04-19T02:25:24.775Z,4.54
2023-04-19T02:27:54.917Z,4.56
2023-04-19T02:30:24.466Z,4.59
2023-04-19T02:32:55.032Z,4.59
2023-04-19T02:35:24.793Z,4.49
2023-04-19T02:37:55.890Z,4.48
2023-04-19T02:40:26.113Z,4.33
2023-04-19T02:42:55.621Z,4.33
2023-04-19T02:45:24.881Z,4.37
2023-04-19T02:47:57.501Z,4.41
2023-04-19T02:50:28.358Z,4.41
2023-04-19T02:53:00.009Z,4.36
2023-04-19T02:55:31.539Z,4.33
2023-04-19T02:58:08.470Z,4.32
2023-04-19T03:00:44.346Z,4.25
2023-04-19T03:03:17.686Z,4.23
2023-04-19T03:05:46.959Z,4.31
2023-04-19T03:08:17.966Z,4.29
2023-04-19T03:10:48.331Z,4.38
2023-04-19T03:13:18.042Z,4.33
2023-04-19T03:15:48.110Z,4.29
2023-04-19T03:18:26.648Z,4.32
2023-04-19T03:20:59.620Z,4.22
2023-04-19T03:23:34.079Z,4.23
2023-04-19T03:26:04.801Z,4.15
2023-04-19T03:28:41.295Z,4.18
2023-04-19T03:31:35.255Z,4.26
2023-04-19T03:34:05.543Z,4.26
2023-04-19T03:36:41.887Z,4.20
2023-04-19T03:39:13.006Z,4.22
2023-04-19T03:41:44.108Z,4.11
2023-04-19T03:44:23.301Z,4.09
2023-04-19T03:46:53.068Z,4.06
2023-04-19T03:49:26.744Z,3.99
2023-04-19T03:52:07.405Z,3.95
2023-04-19T03:54:38.616Z,3.97
2023-04-19T03:57:14.664Z,3.99
2023-04-19T03:59:43.996Z,3.98
2023-04-19T04:02:13.465Z,3.89
2023-04-19T04:04:43.135Z,3.88
2023-04-19T04:07:15.472Z,3.77
2023-04-19T04:09:47.831Z,3.83
2023-04-19T04:12:17.309Z,3.87
2023-04-19T04:14:47.960Z,3.86
2023-04-19T04:17:19.694Z,3.89
2023-04-19T04:19:49.203Z,3.90
2023-04-19T04:22:21.527Z,3.98
2023-04-19T04:24:53.927Z,4.05
2023-04-19T04:27:30.352Z,4.05
2023-04-19T04:30:01.767Z,4.04
2023-04-19T04:32:35.899Z,4.06
2023-04-19T04:35:07.982Z,3.96
2023-04-19T04:37:54.941Z,4.07
2023-04-19T04:40:30.104Z,4.16
2023-04-19T04:43:00.901Z,4.19
2023-04-19T04:45:32.111Z,4.24
2023-04-19T04:48:02.161Z,4.25
2023-04-19T04:50:31.509Z,4.28
2023-04-19T04:53:03.736Z,4.38
2023-04-19T04:55:36.358Z,4.43
2023-04-19T04:58:06.547Z,4.49
2023-04-19T05:00:55.791Z,4.59
2023-04-19T05:03:28.312Z,4.63
2023-04-19T05:06:01.350Z,4.66
2023-04-19T05:08:32.600Z,4.75
2023-04-19T05:11:16.501Z,4.81
2023-04-19T05:13:46.615Z,4.81
2023-04-19T05:16:16.365Z,4.92
2023-04-19T05:18:48.333Z,4.97
2023-04-19T05:21:17.729Z,5.06
2023-04-19T05:23:47.917Z,5.14
2023-04-19T05:26:19.522Z,5.12
2023-04-19T05:28:50.586Z,5.20
2023-04-19T05:31:54.127Z,5.37
2023-04-19T05:34:32.535Z,5.85
2023-04-19T05:37:03.495Z,6.37
2023-04-19T05:39:36.501Z,6.35
2023-04-19T05:42:09.849Z,6.65
2023-04-19T05:44:39.145Z,7.03
2023-04-19T05:47:08.953Z,7.48
2023-04-19T05:50:03.040Z,7.33
2023-04-19T05:52:39.570Z,7.62
2023-04-19T05:55:10.960Z,7.86
2023-04-19T05:57:46.806Z,7.44
2023-04-19T06:00:17.538Z,7.54
2023-04-19T06:02:55.111Z,7.95
2023-04-19T06:05:24.689Z,8.18
2023-04-19T06:08:02.726Z,8.36
2023-04-19T06:10:44.415Z,8.13
2023-04-19T06:13:23.593Z,8.40
2023-04-19T06:15:52.949Z,8.50
2023-04-19T06:18:26.584Z,9.21
2023-04-19T06:20:56.027Z,9.26
2023-04-19T06:23:25.838Z,9.17
2023-04-19T06:25:55.210Z,8.91
2023-04-19T06:28:25.910Z,9.52
2023-04-19T06:30:55.275Z,9.48
2023-04-19T06:33:24.585Z,9.56
2023-04-19T06:35:54.292Z,9.66
2023-04-19T06:38:23.542Z,9.96
2023-04-19T06:41:23.004Z,9.62
2023-04-19T06:43:53.837Z,10.03
2023-04-19T06:46:23.225Z,10.48
2023-04-19T06:48:52.443Z,10.08
2023-04-19T06:51:21.917Z,10.38
2023-04-19T06:53:52.068Z,10.26
2023-04-19T06:56:42.190Z,10.45
2023-04-19T06:59:13.752Z,10.76
2023-04-19T07:01:43.425Z,10.53
2023-04-19T07:04:13.974Z,10.92
2023-04-19T07:06:43.713Z,10.77
2023-04-19T07:09:16.466Z,10.80
2023-04-19T07:11:47.675Z,11.44
2023-04-19T07:14:19.262Z,11.23
2023-04-19T07:16:50.962Z,11.07
2023-04-19T07:19:22.817Z,10.95
2023-04-19T07:21:52.501Z,11.19
2023-04-19T07:24:22.788Z,11.66
2023-04-19T07:26:52.565Z,11.08
2023-04-19T07:29:23.449Z,11.54
2023-04-19T07:31:55.348Z,12.13
2023-04-19T07:34:24.713Z,11.80
2023-04-19T07:36:54.244Z,11.97
2023-04-19T07:39:23.496Z,12.05
2023-04-19T07:41:52.694Z,12.21
2023-04-19T07:44:23.340Z,12.28
2023-04-19T07:46:52.937Z,13.30
2023-04-19T07:49:22.280Z,12.61
2023-04-19T07:51:51.777Z,12.53
2023-04-19T07:54:21.545Z,12.31
2023-04-19T07:56:51.215Z,12.80
2023-04-19T07:59:21.890Z,12.94
2023-04-19T08:01:51.914Z,12.91
2023-04-19T08:04:23.954Z,12.95
2023-04-19T08:06:53.951Z,13.25
2023-04-19T08:09:27.571Z,12.74
2023-04-19T08:11:57.776Z,12.90
2023-04-19T08:14:40.330Z,12.33
2023-04-19T08:17:25.927Z,13.17
2023-04-19T08:19:57.611Z,12.86
2023-04-19T08:22:27.141Z,13.92
2023-04-19T08:24:58.883Z,12.91
2023-04-19T08:27:28.266Z,12.93
2023-04-19T08:29:59.116Z,13.49
2023-04-19T08:32:28.384Z,13.50
2023-04-19T08:34:57.967Z,13.57
2023-04-19T08:37:27.536Z,13.47
2023-04-19T08:39:56.776Z,13.34
2023-04-19T08:42:35.662Z,13.26
2023-04-19T08:45:27.013Z,13.36
2023-04-19T08:48:02.092Z,13.33
2023-04-19T08:50:38.899Z,13.57
2023-04-19T08:53:24.970Z,13.40
2023-04-19T08:56:12.925Z,13.82
2023-04-19T09:01:31.093Z,14.03
2023-04-19T09:04:17.067Z,14.37
2023-04-19T09:06:52.404Z,13.19
2023-04-19T09:11:55.461Z,13.26
2023-04-19T09:14:26.642Z,13.59
2023-04-19T09:17:17.636Z,14.01
2023-04-19T09:19:51.021Z,13.65
2023-04-19T09:22:22.566Z,14.16
2023-04-19T09:27:29.205Z,14.23
2023-04-19T09:29:59.365Z,15.06
2023-04-19T09:32:45.191Z,14.29
2023-04-19T09:35:14.661Z,14.51
2023-04-19T09:40:24.824Z,14.51
2023-04-19T09:43:07.366Z,14.52
2023-04-19T09:45:44.145Z,14.70
2023-04-19T09:48:15.883Z,15.02
2023-04-19T09:50:59.574Z,15.25
2023-04-19T09:53:35.265Z,15.56
2023-04-19T09:56:06.292Z,14.83
2023-04-19T09:58:49.002Z,14.69
2023-04-19T10:01:22.044Z,14.59
2023-04-19T10:03:55.310Z,14.80
2023-04-19T10:08:58.009Z,14.49
2023-04-19T10:11:33.007Z,14.82
2023-04-19T10:14:05.161Z,14.14
2023-04-19T10:16:37.701Z,14.03
2023-04-19T10:19:13.223Z,14.04
2023-04-19T10:21:46.469Z,14.87
2023-04-19T10:24:18.505Z,14.03
2023-04-19T10:27:14.546Z,14.44
2023-04-19T10:30:01.097Z,13.63
2023-04-19T10:32:31.933Z,13.92
2023-04-19T10:35:08.911Z,14.74
2023-04-19T10:37:42.199Z,14.80
2023-04-19T10:40:12.810Z,13.98
2023-04-19T10:43:16.968Z,14.53
2023-04-19T10:45:47.894Z,15.38
2023-04-19T10:48:41.207Z,14.35
2023-04-19T10:51:16.719Z,14.75
2023-04-19T10:53:55.462Z,15.70
2023-04-19T10:57:06.273Z,14.22
2023-04-19T10:59:36.670Z,13.98
2023-04-19T11:02:28.182Z,14.24
2023-04-19T11:05:03.775Z,13.65
2023-04-19T11:07:44.542Z,14.15
2023-04-19T11:10:13.838Z,14.11
2023-04-19T11:12:46.730Z,14.43
2023-04-19T11:15:16.232Z,14.74
2023-04-19T11:18:00.909Z,14.45
2023-04-19T11:20:34.243Z,14.66
2023-04-19T11:23:17.029Z,14.74
2023-04-19T11:25:48.481Z,14.63
2023-04-19T11:28:30.503Z,14.31
2023-04-19T11:31:00.099Z,13.60
2023-04-19T11:33:33.976Z,14.39
2023-04-19T11:36:04.070Z,14.42
2023-04-19T11:38:35.228Z,14.54
2023-04-19T11:41:05.518Z,13.96
2023-04-19T11:43:37.429Z,14.79
2023-04-19T11:46:07.741Z,13.71
2023-04-19T11:48:37.962Z,14.09
2023-04-19T11:51:08.633Z,14.09
2023-04-19T11:53:42.470Z,14.28
2023-04-19T11:56:12.196Z,14.52
2023-04-19T11:58:45.075Z,14.46
2023-04-19T12:01:16.348Z,13.79
2023-04-19T12:03:48.491Z,14.03
2023-04-19T12:06:20.697Z,14.25
2023-04-19T12:08:53.950Z,14.21
2023-04-19T12:11:26.831Z,14.09
2023-04-19T12:14:10.540Z,14.46
2023-04-19T12:16:40.110Z,14.62
2023-04-19T12:19:14.537Z,14.54
2023-04-19T12:21:44.316Z,13.77
2023-04-19T12:24:17.771Z,13.83
2023-04-19T12:26:56.465Z,13.98
2023-04-19T12:29:26.357Z,14.17
2023-04-19T12:31:56.164Z,13.86
2023-04-19T12:34:25.460Z,14.15
2023-04-19T12:36:57.650Z,13.96
2023-04-19T12:39:28.816Z,13.71
2023-04-19T12:41:58.464Z,14.59
2023-04-19T12:44:29.170Z,13.85
2023-04-19T12:46:59.038Z,14.14
2023-04-19T12:49:28.635Z,13.54
2023-04-19T12:51:57.890Z,14.25
2023-04-19T12:54:28.673Z,13.74
2023-04-19T12:56:58.713Z,13.69
2023-04-19T12:59:28.419Z,13.98
2023-04-19T13:01:58.296Z,14.24
2023-04-19T13:04:28.146Z,14.01
2023-04-19T13:06:57.539Z,13.10
2023-04-19T13:09:30.407Z,13.21
2023-04-19T13:11:59.822Z,14.67
2023-04-19T13:14:30.389Z,13.97
2023-04-19T13:16:59.746Z,13.91
2023-04-19T13:19:29.693Z,13.67
2023-04-19T13:21:58.890Z,13.96
2023-04-19T13:24:29.678Z,13.70
2023-04-19T13:26:58.967Z,14.10
2023-04-19T13:29:29.946Z,13.81
2023-04-19T13:31:59.453Z,13.56
2023-04-19T13:34:29.363Z,13.90
2023-04-19T13:36:59.904Z,14.33
2023-04-19T13:39:30.676Z,13.43
2023-04-19T13:42:01.958Z,13.26
2023-04-19T13:44:31.517Z,13.28
2023-04-19T13:47:01.541Z,13.36
2023-04-19T13:49:31.750Z,13.64
2023-04-19T13:52:01.120Z,13.85
2023-04-19T13:54:32.034Z,14.55
2023-04-19T13:57:01.442Z,13.62
2023-04-19T13:59:30.849Z,13.85
2023-04-19T14:02:00.215Z,13.46
2023-04-19T14:04:38.817Z,13.33
2023-04-19T14:07:09.445Z,13.50
2023-04-19T14:09:42.350Z,13.36
2023-04-19T14:12:12.692Z,13.34
2023-04-19T14:14:41.936Z,12.97
2023-04-19T14:17:11.641Z,13.00
2023-04-19T14:19:40.892Z,13.09
2023-04-19T14:22:10.194Z,12.74
2023-04-19T14:24:42.160Z,12.74
2023-04-19T14:27:12.161Z,13.02
2023-04-19T14:29:41.695Z,13.12
2023-04-19T14:32:24.919Z,12.97
2023-04-19T14:34:56.232Z,13.06
2023-04-19T14:37:26.807Z,13.57
2023-04-19T14:39:57.662Z,13.55
2023-04-19T14:42:28.994Z,13.50
2023-04-19T14:44:59.895Z,12.97
2023-04-19T14:47:30.701Z,13.79
2023-04-19T14:50:02.393Z,13.05
2023-04-19T14:52:32.424Z,12.54
2023-04-19T14:55:11.613Z,13.16
2023-04-19T14:57:40.970Z,13.29
2023-04-19T15:00:11.905Z,14.03
2023-04-19T15:02:41.704Z,13.12
2023-04-19T15:05:11.453Z,13.52
2023-04-19T15:07:41.124Z,12.68
2023-04-19T15:10:12.957Z,12.99
2023-04-19T15:12:43.747Z,12.83
2023-04-19T15:15:13.394Z,12.93
2023-04-19T15:17:42.860Z,12.95
2023-04-19T15:20:12.734Z,12.91
2023-04-19T15:22:43.566Z,13.53
2023-04-19T15:25:17.081Z,13.21
2023-04-19T15:27:46.532Z,13.18
2023-04-19T15:30:18.467Z,13.03
2023-04-19T15:32:54.764Z,13.17
2023-04-19T15:35:38.706Z,13.65
2023-04-19T15:38:26.665Z,12.83
2023-04-19T15:41:30.370Z,13.16
2023-04-19T15:44:03.081Z,12.90
2023-04-19T15:46:33.597Z,13.01
2023-04-19T15:49:03.913Z,13.27
2023-04-19T15:51:33.806Z,12.92
2023-04-19T15:54:03.888Z,12.37
2023-04-19T15:56:35.755Z,12.36
2023-04-19T15:59:05.047Z,12.85
2023-04-19T16:01:34.437Z,11.99
2023-04-19T16:04:04.319Z,12.67
2023-04-19T16:06:34.260Z,12.41
2023-04-19T16:09:03.818Z,12.68
2023-04-19T16:11:54.408Z,12.77
2023-04-19T16:14:25.407Z,12.40
2023-04-19T16:16:55.172Z,12.15
2023-04-19T16:19:24.861Z,12.15
2023-04-19T16:22:06.966Z,12.47
2023-04-19T16:24:36.716Z,12.40
2023-04-19T16:27:07.496Z,12.24
2023-04-19T16:29:38.449Z,12.06
2023-04-19T16:32:10.675Z,12.22
2023-04-19T16:34:42.007Z,12.05
2023-04-19T16:37:11.377Z,12.67
2023-04-19T16:39:41.822Z,12.83
2023-04-19T16:42:12.621Z,12.06
2023-04-19T16:44:42.925Z,12.30
2023-04-19T16:47:13.268Z,12.22
2023-04-19T16:49:43.249Z,12.11
2023-04-19T16:52:12.998Z,11.72
2023-04-19T16:54:43.660Z,11.84
2023-04-19T16:57:14.738Z,11.73
2023-04-19T16:59:45.746Z,11.57
2023-04-19T17:02:15.374Z,11.59
2023-04-19T17:04:45.441Z,11.51
2023-04-19T17:07:24.327Z,11.61
2023-04-19T17:09:54.222Z,11.25
2023-04-19T17:12:24.906Z,11.35
2023-04-19T17:14:54.677Z,11.16
2023-04-19T17:17:24.663Z,11.04
2023-04-19T17:19:56.650Z,11.22
2023-04-19T17:22:26.533Z,11.17
2023-04-19T17:25:14.698Z,10.97
2023-04-19T17:27:45.491Z,11.54
2023-04-19T17:30:42.044Z,11.25
2023-04-19T17:33:12.817Z,10.99
2023-04-19T17:35:42.484Z,11.13
2023-04-19T17:38:12.546Z,11.16
2023-04-19T17:40:41.900Z,11.02
2023-04-19T17:43:14.057Z,11.20
2023-04-19T17:45:43.790Z,10.85
2023-04-19T17:48:13.407Z,10.72
2023-04-19T17:50:42.948Z,10.59
2023-04-19T17:53:12.884Z,10.44
2023-04-19T17:55:52.366Z,10.17
2023-04-19T17:58:23.537Z,10.21
2023-04-19T18:00:53.068Z,10.00
2023-04-19T18:03:22.670Z,10.26
2023-04-19T18:05:52.818Z,10.06
2023-04-19T18:08:22.055Z,10.04
2023-04-19T18:10:51.837Z,9.84
2023-04-19T18:13:22.511Z,9.89
2023-04-19T18:15:52.130Z,9.73
2023-04-19T18:18:25.461Z,9.69
2023-04-19T18:20:54.760Z,9.78
2023-04-19T18:23:24.600Z,9.77
2023-04-19T18:25:57.408Z,9.54
2023-04-19T18:28:28.745Z,9.51
2023-04-19T18:30:58.202Z,9.44
2023-04-19T18:33:27.642Z,9.35
2023-04-19T18:35:57.797Z,9.31
2023-04-19T18:38:27.422Z,9.32
2023-04-19T18:40:57.073Z,9.45
2023-04-19T18:43:30.822Z,9.31
2023-04-19T18:46:01.366Z,9.17
2023-04-19T18:48:31.957Z,9.08
2023-04-19T18:51:03.928Z,9.05
2023-04-19T18:53:33.411Z,8.98
2023-04-19T18:58:34.382Z,8.95
2023-04-19T19:01:04.603Z,8.90
2023-04-19T19:06:08.503Z,8.78
2023-04-19T19:09:03.799Z,8.84
2023-04-19T19:14:07.746Z,8.84
2023-04-19T19:16:50.482Z,8.68
2023-04-19T19:19:22.470Z,8.81
2023-04-19T19:21:52.772Z,8.91
2023-04-19T19:24:24.770Z,8.81
2023-04-19T19:26:54.231Z,8.68
2023-04-19T19:29:25.544Z,8.72
2023-04-19T19:31:55.755Z,8.77
2023-04-19T19:34:30.229Z,8.68
2023-04-19T19:37:09.717Z,8.56
2023-04-19T19:39:38.935Z,8.55
2023-04-19T19:42:08.257Z,8.54
2023-04-19T19:44:41.418Z,8.42
2023-04-19T19:47:11.094Z,8.57
2023-04-19T19:49:57.626Z,8.30
2023-04-19T19:52:44.959Z,8.24
2023-04-19T19:55:14.963Z,8.20
2023-04-19T20:02:54.622Z,8.24
2023-04-19T20:05:25.928Z,8.53
2023-04-19T20:08:08.780Z,8.52
2023-04-19T20:10:40.033Z,8.49
2023-04-19T20:13:12.881Z,8.61
2023-04-19T20:15:45.692Z,8.47
2023-04-19T20:18:15.304Z,8.62
2023-04-19T20:20:44.717Z,8.63
2023-04-19T20:23:16.110Z,8.68
2023-04-19T20:25:45.420Z,8.64
2023-04-19T20:28:17.399Z,8.79
2023-04-19T20:30:49.650Z,8.74
2023-04-19T20:33:21.541Z,8.90
2023-04-19T20:35:53.524Z,8.96
2023-04-19T20:38:26.510Z,8.86
2023-04-19T20:40:56.419Z,8.99
2023-04-19T20:43:28.113Z,9.09
2023-04-19T20:45:58.830Z,9.11
2023-04-19T20:48:28.135Z,9.13
2023-04-19T20:50:59.862Z,9.05
2023-04-19T20:53:29.154Z,9.12
2023-04-19T20:56:00.292Z,9.13
2023-04-19T20:58:32.135Z,9.15
2023-04-19T21:01:06.030Z,9.22
2023-04-19T21:03:35.988Z,9.18
2023-04-19T21:06:05.498Z,9.24
2023-04-19T21:08:36.041Z,9.29
2023-04-19T21:11:05.517Z,9.23
2023-04-19T21:13:34.885Z,9.20
2023-04-19T21:16:05.331Z,9.10
2023-04-19T21:18:35.994Z,9.28
2023-04-19T21:21:05.418Z,9.31
2023-04-19T21:23:35.219Z,9.38
2023-04-19T21:26:04.694Z,9.28
2023-04-19T21:28:35.962Z,9.21
2023-04-19T21:31:05.328Z,9.33
2023-04-19T21:33:36.437Z,9.34
2023-04-19T21:36:06.312Z,9.46
2023-04-19T21:38:36.501Z,9.45
2023-04-19T21:41:07.454Z,9.60
2023-04-19T21:43:36.751Z,9.50
2023-04-19T21:46:06.725Z,9.54
2023-04-19T21:48:39.088Z,9.58
2023-04-19T21:51:08.794Z,9.63
2023-04-19T21:53:38.256Z,9.68
2023-04-19T21:56:09.998Z,9.71
2023-04-19T21:58:39.613Z,9.68
2023-04-19T22:01:10.085Z,9.79
2023-04-19T22:03:41.277Z,9.77
2023-04-19T22:06:10.826Z,9.84
2023-04-19T22:08:40.409Z,9.91
2023-04-19T22:11:10.226Z,9.81
2023-04-19T22:13:39.839Z,9.79
2023-04-19T22:16:09.473Z,9.76
2023-04-19T22:18:41.315Z,9.82
2023-04-19T22:21:12.062Z,9.75
2023-04-19T22:23:42.419Z,9.85
2023-04-19T22:26:11.666Z,9.77
2023-04-19T22:28:41.188Z,9.92
2023-04-19T22:31:10.559Z,9.76
2023-04-19T22:33:41.649Z,9.76
2023-04-19T22:36:11.347Z,9.80
2023-04-19T22:38:40.942Z,9.76
2023-04-19T22:41:10.117Z,9.64
2023-04-19T22:43:41.933Z,9.74
2023-04-19T22:46:13.196Z,9.74
2023-04-19T22:48:44.943Z,9.69
2023-04-19T22:51:14.809Z,9.68
2023-04-19T22:53:45.733Z,9.72
2023-04-19T22:56:14.951Z,9.78
2023-04-19T22:58:46.576Z,9.71
2023-04-19T23:01:16.065Z,9.57
2023-04-19T23:03:46.937Z,9.59
2023-04-19T23:06:17.842Z,9.63
2023-04-19T23:08:47.158Z,9.70
2023-04-19T23:11:17.271Z,9.61
2023-04-19T23:13:47.431Z,9.58
2023-04-19T23:16:16.973Z,9.58
2023-04-19T23:18:52.619Z,9.51
2023-04-19T23:21:22.986Z,9.55
2023-04-19T23:23:54.352Z,9.51
2023-04-19T23:26:24.035Z,9.37
2023-04-19T23:28:55.480Z,9.42
2023-04-19T23:31:25.132Z,9.48
2023-04-19T23:33:55.841Z,9.32
2023-04-19T23:36:25.328Z,9.35
2023-04-19T23:38:54.825Z,9.30
2023-04-19T23:41:24.224Z,9.21
2023-04-19T23:43:53.708Z,9.21
2023-04-19T23:46:23.779Z,9.14
2023-04-19T23:48:54.910Z,9.16
2023-04-19T23:51:26.793Z,9.05
2023-04-19T23:53:56.235Z,9.02
2023-04-19T23:56:25.758Z,8.97
2023-04-19T23:58:55.006Z,9.01
